Talladega, AL

4:06 PM CST on December 08, 2016 (GMT -0600)
KALTALLA6 | | Change Station

Elev 596 ft 33.40 °N, 86.12 °W | Updated 12 minutes ago

Clear
Clear
43.9 °F
Feels Like 44 °F
N
3.0
Wind Variable Wind from North
Gusts 6.0 mph

Today
High -- | Low -- °F
--% Chance of Precip.
Yesterday
High -- | Low -- °F
Precip. -- in
Pressure 30.38 in
Visibility 10.0 miles
Clouds Clear
Windchill 44 °F
Dew Point 24 °F
Humidity 46%
Rainfall 0.00 in
Snow Depth Not available.
6:36 AM 4:36 PM
Waxing Gibbous, 67% visible
METAR KANB 082153Z AUTO 35008KT 10SM CLR 07/M07 A3036 RMK AO2 SLP288 T00671072
Pressure 30.38 in
Visibility 10.0 miles
Clouds Clear
Windchill 44 °F
Dew Point 24 °F
Humidity 46%
Rainfall 0.00 in
Snow Depth Not available.
6:36 AM 4:36 PM
Waxing Gibbous, 67% visible
METAR KANB 082153Z AUTO 35008KT 10SM CLR 07/M07 A3036 RMK AO2 SLP288 T00671072

10-Day Weather Forecast

Almanac

Astronomy

Dec. 08, 2016 Rise Set
Actual Time
Civil Twilight
Nautical Twilight
Astronomical Twilight
Moon
Length of Visible Light
Length of Day
Tomorrow will be .
, % of the Moon is Illuminated

Today's Extremes

State Highs State Lows

Community

WunderPhotos

Upload Photos

1,956,277 photos uploaded!

WunderBlog® & News

Nearby

Air Quality

  Air Quality AQ Index Pollutant
Not available.

Snow Depth

Station Depth Elevation

Earthquake Activity

City Distance Mag. Time & Date
Minimum magnitude displayed is 2.5.

Coastal Water Temperatures

Place Temperature

Stations

Nearby Weather Stations

Station Location Temp. Windchill Dew Point Humidity Wind Precip. Elev Updated Type
                   

Watches & Warnings

There are currently no watches in effect.